createdAt,value
2022-08-19T00:01:31.765Z,6.70
2022-08-19T00:04:01.310Z,6.18
2022-08-19T00:06:30.898Z,5.00
2022-08-19T00:09:01.115Z,7.85
2022-08-19T00:11:31.252Z,9.15
2022-08-19T00:13:59.894Z,8.63
2022-08-19T00:16:28.441Z,7.63
2022-08-19T00:18:57.145Z,5.13
2022-08-19T00:21:27.633Z,4.90
2022-08-19T00:23:56.278Z,6.22
2022-08-19T00:26:24.211Z,7.93
2022-08-19T00:28:53.709Z,11.05
2022-08-19T00:31:22.159Z,9.43
2022-08-19T00:33:51.412Z,4.65
2022-08-19T00:36:19.683Z,10.38
2022-08-19T00:38:48.405Z,7.43
2022-08-19T00:41:18.417Z,7.90
2022-08-19T00:44:01.266Z,5.72
2022-08-19T00:46:29.840Z,5.63
2022-08-19T00:48:59.096Z,9.35
2022-08-19T00:51:27.660Z,8.52
2022-08-19T00:53:57.227Z,8.45
2022-08-19T00:56:27.920Z,6.85
2022-08-19T00:58:58.521Z,8.07
2022-08-19T01:01:28.350Z,6.93
2022-08-19T01:03:58.402Z,6.50
2022-08-19T01:06:27.273Z,5.63
2022-08-19T01:08:56.548Z,8.13
2022-08-19T01:11:24.749Z,17.23
2022-08-19T01:13:54.423Z,9.43
2022-08-19T01:16:25.931Z,6.55
2022-08-19T01:18:58.180Z,6.38
2022-08-19T01:21:34.199Z,9.80
2022-08-19T01:24:04.750Z,7.05
2022-08-19T01:26:32.903Z,7.75
2022-08-19T01:29:02.031Z,6.47
2022-08-19T01:31:32.715Z,4.53
2022-08-19T01:34:04.630Z,6.50
2022-08-19T01:36:36.087Z,8.73
2022-08-19T01:39:12.589Z,7.30
2022-08-19T01:41:42.019Z,6.90
2022-08-19T01:44:17.591Z,9.55
2022-08-19T01:46:50.536Z,11.02
2022-08-19T01:49:20.693Z,9.32
2022-08-19T01:51:50.517Z,6.82
2022-08-19T01:54:23.394Z,5.95
2022-08-19T01:57:02.451Z,8.45
2022-08-19T01:59:33.030Z,11.75
2022-08-19T02:02:03.162Z,7.32
2022-08-19T02:04:33.386Z,6.25
2022-08-19T02:07:03.123Z,9.65
2022-08-19T02:09:34.397Z,6.97
2022-08-19T02:12:02.841Z,9.52
2022-08-19T02:14:30.758Z,10.55
2022-08-19T02:16:58.801Z,6.50
2022-08-19T02:19:26.830Z,6.88
2022-08-19T02:21:54.898Z,10.13
2022-08-19T02:24:22.879Z,10.48
2022-08-19T02:26:52.262Z,10.15
2022-08-19T02:29:20.275Z,11.40
2022-08-19T02:31:48.272Z,7.40
2022-08-19T02:34:16.362Z,7.55
2022-08-19T02:36:44.473Z,7.88
2022-08-19T02:39:19.098Z,11.15
2022-08-19T02:41:47.107Z,6.88
2022-08-19T02:44:29.219Z,9.20
2022-08-19T02:47:00.092Z,6.00
2022-08-19T02:49:28.013Z,12.23
2022-08-19T02:51:56.185Z,8.88
2022-08-19T02:54:24.379Z,8.18
2022-08-19T02:56:52.455Z,5.93
2022-08-19T02:59:22.977Z,6.30
2022-08-19T03:01:51.565Z,6.00
2022-08-19T03:04:20.315Z,6.90
2022-08-19T03:06:49.785Z,4.75
2022-08-19T03:09:18.976Z,5.05
2022-08-19T03:11:47.452Z,6.82
2022-08-19T03:14:19.022Z,6.75
2022-08-19T03:16:54.170Z,14.57
2022-08-19T03:19:23.303Z,5.55
2022-08-19T03:21:52.368Z,7.53
2022-08-19T03:24:21.382Z,7.00
2022-08-19T03:26:52.209Z,9.23
2022-08-19T03:29:30.945Z,6.57
2022-08-19T03:32:04.844Z,7.38
2022-08-19T03:39:37.864Z,5.50
2022-08-19T03:42:32.808Z,5.47
2022-08-19T03:44:55.200Z,7.47
2022-08-19T03:47:24.632Z,12.82
2022-08-19T03:49:52.716Z,4.07
2022-08-19T03:52:20.676Z,5.55
2022-08-19T03:54:48.612Z,5.78
2022-08-19T03:57:16.540Z,7.00
2022-08-19T03:59:45.082Z,5.57
2022-08-19T04:02:14.101Z,7.78
2022-08-19T04:04:45.540Z,8.15
2022-08-19T04:07:16.791Z,7.32
2022-08-19T04:09:45.308Z,5.57
2022-08-19T04:12:13.596Z,4.97
2022-08-19T04:14:45.581Z,8.02
2022-08-19T04:17:18.742Z,6.38
2022-08-19T04:19:48.765Z,9.27
2022-08-19T04:22:18.217Z,5.68
2022-08-19T04:24:48.629Z,8.10
2022-08-19T04:27:19.392Z,8.63
2022-08-19T04:29:48.869Z,5.80
2022-08-19T04:32:18.202Z,8.90
2022-08-19T04:35:02.460Z,4.60
2022-08-19T04:37:41.430Z,4.90
2022-08-19T04:40:28.979Z,8.30
2022-08-19T04:42:57.825Z,5.72
2022-08-19T04:45:26.097Z,6.10
2022-08-19T04:48:19.592Z,6.43
2022-08-19T04:50:49.743Z,5.82
2022-08-19T04:53:19.183Z,7.70
2022-08-19T04:55:48.073Z,6.35
2022-08-19T04:58:17.753Z,7.28
2022-08-19T05:00:46.519Z,7.05
2022-08-19T05:03:18.289Z,10.20
2022-08-19T05:05:50.455Z,10.07
2022-08-19T05:08:31.331Z,9.18
2022-08-19T05:11:00.704Z,10.80
2022-08-19T05:13:29.020Z,8.25
2022-08-19T05:16:02.055Z,11.65
2022-08-19T05:18:48.932Z,11.50
2022-08-19T05:21:38.892Z,13.02
2022-08-19T05:24:11.046Z,10.90
2022-08-19T05:26:44.324Z,16.95
2022-08-19T05:29:13.481Z,13.48
2022-08-19T05:31:43.804Z,15.63
2022-08-19T05:34:18.301Z,16.50
2022-08-19T05:36:59.194Z,15.80
2022-08-19T05:39:39.052Z,14.98
2022-08-19T05:42:15.489Z,16.20
2022-08-19T05:44:49.018Z,17.60
2022-08-19T05:47:21.037Z,16.08
2022-08-19T05:49:52.515Z,15.67
2022-08-19T05:52:26.561Z,16.00
2022-08-19T05:54:58.790Z,12.82
2022-08-19T05:57:30.328Z,21.23
2022-08-19T06:00:03.786Z,15.95
2022-08-19T06:02:40.788Z,15.98
2022-08-19T06:05:10.384Z,18.65
2022-08-19T06:07:43.092Z,14.68
2022-08-19T06:10:13.024Z,18.50
2022-08-19T06:12:41.268Z,18.67
2022-08-19T06:15:12.221Z,16.83
2022-08-19T06:17:40.676Z,18.33
2022-08-19T06:20:14.549Z,20.92
2022-08-19T06:22:47.770Z,15.38
2022-08-19T06:25:18.492Z,19.23
2022-08-19T06:28:14.134Z,14.52
2022-08-19T06:30:39.977Z,14.70
2022-08-19T06:33:09.666Z,11.77
2022-08-19T06:38:14.734Z,12.27
2022-08-19T06:43:12.219Z,16.25
2022-08-19T06:45:44.127Z,12.65
2022-08-19T06:48:17.261Z,16.08
2022-08-19T06:53:22.745Z,13.40
2022-08-19T06:56:02.486Z,14.80
2022-08-19T06:58:34.759Z,11.68
2022-08-19T07:01:09.103Z,12.30
2022-08-19T07:03:41.675Z,15.02
2022-08-19T07:06:39.413Z,17.27
2022-08-19T07:09:06.340Z,17.63
2022-08-19T07:11:38.015Z,17.25
2022-08-19T07:14:19.178Z,16.52
2022-08-19T07:16:50.436Z,14.40
2022-08-19T07:19:22.610Z,13.50
2022-08-19T07:21:54.894Z,13.60
2022-08-19T07:24:33.504Z,21.15
2022-08-19T07:27:06.820Z,14.02
2022-08-19T07:29:47.229Z,13.30
2022-08-19T07:32:28.037Z,12.15
2022-08-19T07:35:02.019Z,14.57
2022-08-19T07:37:34.625Z,16.95
2022-08-19T07:40:08.079Z,17.80
2022-08-19T07:42:36.255Z,20.80
2022-08-19T07:45:07.778Z,14.73
2022-08-19T07:47:58.758Z,14.95
2022-08-19T07:50:29.853Z,12.48
2022-08-19T07:52:59.499Z,12.88
2022-08-19T07:55:40.610Z,17.08
2022-08-19T07:58:18.551Z,14.68
2022-08-19T08:00:53.782Z,17.85
2022-08-19T08:03:47.299Z,12.60
2022-08-19T08:06:37.779Z,14.07
2022-08-19T08:11:55.170Z,16.27
2022-08-19T08:14:35.274Z,13.38
2022-08-19T08:17:13.550Z,17.10
2022-08-19T08:19:46.688Z,17.50
2022-08-19T08:22:42.874Z,19.52
2022-08-19T08:25:17.929Z,15.80
2022-08-19T08:27:55.317Z,17.05
2022-08-19T08:30:34.720Z,14.15
2022-08-19T08:33:08.237Z,10.70
2022-08-19T08:38:12.252Z,11.40
2022-08-19T08:40:48.153Z,15.05
2022-08-19T08:43:32.204Z,15.10
2022-08-19T08:46:07.494Z,20.52
2022-08-19T08:48:45.087Z,16.55
2022-08-19T08:51:22.251Z,14.27
2022-08-19T08:53:55.933Z,18.85
2022-08-19T08:59:09.646Z,14.75
2022-08-19T09:01:39.677Z,16.15
2022-08-19T09:04:12.805Z,16.67
2022-08-19T09:06:53.530Z,15.90
2022-08-19T09:09:33.384Z,13.30
2022-08-19T09:12:11.870Z,19.08
2022-08-19T09:14:51.488Z,13.07
2022-08-19T09:17:21.990Z,19.00
2022-08-19T09:19:56.177Z,14.00
2022-08-19T09:22:25.690Z,15.57
2022-08-19T09:24:54.908Z,17.38
2022-08-19T09:27:42.347Z,16.65
2022-08-19T09:30:19.103Z,14.90
2022-08-19T09:32:52.865Z,14.70
2022-08-19T09:35:23.282Z,17.75
2022-08-19T09:37:57.837Z,16.92
2022-08-19T09:40:30.067Z,17.88
2022-08-19T09:43:05.727Z,15.13
2022-08-19T09:45:40.004Z,13.63
2022-08-19T09:48:09.480Z,16.10
2022-08-19T09:50:51.549Z,13.95
2022-08-19T09:53:25.609Z,13.63
2022-08-19T09:55:53.921Z,12.82
2022-08-19T09:58:26.659Z,14.07
2022-08-19T10:00:56.404Z,14.27
2022-08-19T10:03:25.564Z,14.80
2022-08-19T10:06:00.653Z,13.90
2022-08-19T10:08:32.355Z,12.18
2022-08-19T10:11:02.441Z,19.73
2022-08-19T10:13:54.345Z,15.45
2022-08-19T10:16:30.123Z,14.30
2022-08-19T10:18:59.728Z,18.52
2022-08-19T10:21:40.455Z,16.60
2022-08-19T10:24:19.386Z,17.35
2022-08-19T10:26:55.844Z,17.40
2022-08-19T10:29:32.643Z,20.05
2022-08-19T10:32:09.799Z,16.08
2022-08-19T10:34:48.897Z,18.85
2022-08-19T10:37:23.959Z,13.50
2022-08-19T10:40:00.604Z,16.73
2022-08-19T10:42:32.550Z,14.90
2022-08-19T10:45:04.980Z,17.35
2022-08-19T10:50:25.682Z,16.88
2022-08-19T10:52:58.956Z,18.35
2022-08-19T10:55:46.487Z,19.92
2022-08-19T10:58:19.702Z,19.20
2022-08-19T11:00:57.076Z,15.02
2022-08-19T11:03:31.644Z,14.77
2022-08-19T11:06:21.496Z,16.80
2022-08-19T11:08:51.644Z,18.35
2022-08-19T11:11:20.769Z,20.40
2022-08-19T11:13:50.860Z,17.10
2022-08-19T11:16:24.538Z,21.38
2022-08-19T11:19:00.513Z,15.30
2022-08-19T11:21:33.979Z,13.88
2022-08-19T11:24:05.590Z,15.18
2022-08-19T11:26:38.277Z,15.82
2022-08-19T11:34:18.389Z,18.52
2022-08-19T11:36:51.650Z,17.85
2022-08-19T11:39:22.726Z,17.25
2022-08-19T11:41:53.105Z,21.45
2022-08-19T11:44:23.774Z,16.27
2022-08-19T11:46:54.103Z,15.23
2022-08-19T11:49:27.160Z,18.73
2022-08-19T11:51:59.838Z,15.02
2022-08-19T11:54:31.030Z,15.30
2022-08-19T11:57:02.553Z,14.65
2022-08-19T11:59:31.625Z,15.05
2022-08-19T12:02:00.236Z,13.23
2022-08-19T12:04:30.727Z,16.83
2022-08-19T12:06:59.353Z,12.65
2022-08-19T12:09:30.994Z,13.93
2022-08-19T12:12:03.642Z,14.32
2022-08-19T12:14:33.073Z,11.35
2022-08-19T12:17:01.119Z,12.13
2022-08-19T12:19:30.596Z,14.23
2022-08-19T12:22:08.692Z,13.50
2022-08-19T12:24:43.757Z,11.93
2022-08-19T12:27:32.198Z,13.10
2022-08-19T12:30:17.562Z,15.02
2022-08-19T12:32:48.338Z,17.02
2022-08-19T12:35:18.757Z,12.45
2022-08-19T12:37:56.742Z,14.00
2022-08-19T12:40:28.294Z,23.63
2022-08-19T12:42:57.711Z,13.63
2022-08-19T12:45:25.823Z,13.52
2022-08-19T12:47:56.401Z,20.58
2022-08-19T12:50:27.685Z,17.33
2022-08-19T12:52:58.379Z,15.68
2022-08-19T12:58:02.416Z,15.60
2022-08-19T13:00:34.632Z,14.65
2022-08-19T13:03:04.356Z,16.27
2022-08-19T13:05:36.878Z,13.23
2022-08-19T13:08:06.473Z,16.38
2022-08-19T13:10:39.601Z,14.18
2022-08-19T13:13:11.487Z,13.70
2022-08-19T13:15:42.051Z,21.02
2022-08-19T13:18:12.025Z,20.63
2022-08-19T13:20:43.100Z,23.48
2022-08-19T13:23:22.719Z,22.17
2022-08-19T13:25:59.915Z,21.08
2022-08-19T13:28:48.617Z,20.52
2022-08-19T13:31:36.335Z,21.52
2022-08-19T13:34:06.830Z,17.45
2022-08-19T13:36:39.986Z,17.52
2022-08-19T13:39:11.604Z,16.52
2022-08-19T13:41:49.270Z,16.17
2022-08-19T13:44:19.658Z,18.15
2022-08-19T13:46:55.384Z,17.85
2022-08-19T13:49:25.628Z,22.05
2022-08-19T13:51:57.984Z,15.23
2022-08-19T13:54:28.756Z,16.60
2022-08-19T13:57:00.457Z,15.13
2022-08-19T13:59:32.447Z,16.77
2022-08-19T14:02:01.924Z,15.77
2022-08-19T14:04:32.668Z,14.38
2022-08-19T14:07:04.078Z,12.45
2022-08-19T14:09:34.543Z,9.68
2022-08-19T14:12:02.795Z,15.93
2022-08-19T14:14:32.942Z,10.43
2022-08-19T14:17:02.317Z,11.95
2022-08-19T14:19:30.461Z,9.30
2022-08-19T14:22:01.463Z,15.77
2022-08-19T14:24:34.243Z,23.70
2022-08-19T14:27:04.443Z,19.58
2022-08-19T14:29:33.516Z,19.33
2022-08-19T14:32:05.067Z,24.33
2022-08-19T14:34:34.805Z,17.08
2022-08-19T14:37:05.236Z,17.73
2022-08-19T14:39:34.989Z,20.33
2022-08-19T14:42:05.284Z,18.80
2022-08-19T14:44:36.321Z,24.25
2022-08-19T14:47:07.961Z,19.13
2022-08-19T14:49:43.064Z,20.50
2022-08-19T14:52:15.483Z,18.27
2022-08-19T14:54:45.483Z,20.70
2022-08-19T14:57:16.861Z,17.10
2022-08-19T14:59:48.696Z,22.00
2022-08-19T15:02:33.750Z,18.50
2022-08-19T15:05:05.321Z,23.88
2022-08-19T15:07:34.417Z,19.40
2022-08-19T15:10:08.322Z,19.73
2022-08-19T15:12:41.082Z,20.52
2022-08-19T15:15:10.503Z,16.63
2022-08-19T15:17:46.181Z,19.08
2022-08-19T15:20:17.037Z,16.42
2022-08-19T15:22:48.287Z,17.77
2022-08-19T15:25:21.341Z,17.90
2022-08-19T15:27:52.184Z,21.15
2022-08-19T15:30:26.186Z,14.45
2022-08-19T15:32:57.557Z,20.65
2022-08-19T15:35:29.908Z,14.55
2022-08-19T15:38:01.274Z,13.43
2022-08-19T15:40:32.018Z,13.15
2022-08-19T15:43:03.247Z,15.90
2022-08-19T15:45:33.960Z,14.43
2022-08-19T15:48:05.140Z,13.18
2022-08-19T15:50:33.626Z,21.52
2022-08-19T15:53:07.963Z,15.45
2022-08-19T15:55:44.402Z,13.52
2022-08-19T15:58:33.171Z,15.77
2022-08-19T16:01:27.210Z,17.65
2022-08-19T16:04:16.936Z,20.38
2022-08-19T16:06:49.506Z,19.88
2022-08-19T16:09:27.020Z,21.60
2022-08-19T16:12:01.652Z,18.15
2022-08-19T16:14:32.505Z,19.55
2022-08-19T16:17:02.135Z,18.20
2022-08-19T16:19:32.539Z,19.58
2022-08-19T16:22:00.738Z,15.32
2022-08-19T16:24:30.177Z,18.25
2022-08-19T16:27:00.669Z,15.93
2022-08-19T16:29:33.666Z,16.58
2022-08-19T16:32:03.094Z,21.10
2022-08-19T16:34:32.083Z,16.33
2022-08-19T16:37:01.746Z,21.33
2022-08-19T16:39:30.895Z,11.27
2022-08-19T16:42:01.011Z,14.13
2022-08-19T16:44:30.034Z,12.35
2022-08-19T16:46:59.898Z,14.77
2022-08-19T16:49:54.504Z,12.55
2022-08-19T16:52:16.635Z,13.68
2022-08-19T16:54:44.979Z,13.35
2022-08-19T16:57:14.797Z,11.70
2022-08-19T16:59:48.955Z,10.38
2022-08-19T17:02:18.456Z,12.80
2022-08-19T17:04:48.307Z,10.52
2022-08-19T17:07:28.101Z,14.63
2022-08-19T17:09:56.831Z,14.00
2022-08-19T17:12:32.125Z,14.25
2022-08-19T17:15:02.724Z,17.90
2022-08-19T17:17:33.753Z,13.10
2022-08-19T17:20:03.937Z,17.45
2022-08-19T17:22:33.420Z,13.63
2022-08-19T17:25:05.549Z,16.13
2022-08-19T17:27:37.500Z,14.15
2022-08-19T17:30:07.276Z,17.20
2022-08-19T17:32:36.644Z,14.20
2022-08-19T17:35:09.120Z,16.77
2022-08-19T17:37:40.668Z,14.23
2022-08-19T17:40:11.821Z,19.05
2022-08-19T17:42:43.064Z,16.27
2022-08-19T17:45:14.900Z,11.15
2022-08-19T17:47:45.612Z,11.07
2022-08-19T17:50:16.790Z,12.77
2022-08-19T17:52:52.674Z,14.10
2022-08-19T17:55:24.805Z,17.35
2022-08-19T17:57:57.729Z,17.42
2022-08-19T18:03:02.189Z,12.85
2022-08-19T18:05:33.989Z,13.70
2022-08-19T18:08:04.148Z,19.80
2022-08-19T18:10:35.372Z,20.98
2022-08-19T18:13:10.071Z,22.42
2022-08-19T18:15:47.609Z,21.85
2022-08-19T18:18:17.510Z,19.63
2022-08-19T18:20:48.280Z,16.17
2022-08-19T18:23:44.279Z,18.50
2022-08-19T18:26:12.509Z,18.75
2022-08-19T18:28:50.037Z,22.25
2022-08-19T18:31:20.356Z,19.98
2022-08-19T18:33:53.270Z,18.83
2022-08-19T18:36:51.893Z,20.33
2022-08-19T18:39:32.258Z,19.65
2022-08-19T18:42:20.429Z,21.95
2022-08-19T18:45:09.212Z,18.80
2022-08-19T18:48:05.532Z,15.15
2022-08-19T18:50:40.580Z,14.35
2022-08-19T18:53:11.840Z,12.70
2022-08-19T18:55:42.952Z,12.98
2022-08-19T18:58:13.924Z,13.52
2022-08-19T19:00:44.145Z,10.30
2022-08-19T19:03:12.616Z,10.25
2022-08-19T19:05:42.677Z,10.57
2022-08-19T19:08:13.782Z,12.30
2022-08-19T19:10:42.812Z,9.75
2022-08-19T19:13:16.485Z,12.43
2022-08-19T19:15:50.373Z,12.55
2022-08-19T19:18:19.388Z,8.25
2022-08-19T19:20:47.242Z,13.07
2022-08-19T19:23:15.895Z,10.38
2022-08-19T19:25:50.303Z,12.48
2022-08-19T19:28:25.388Z,11.48
2022-08-19T19:30:57.571Z,11.27
2022-08-19T19:33:26.037Z,12.52
2022-08-19T19:35:54.172Z,11.73
2022-08-19T19:38:23.404Z,9.30
2022-08-19T19:40:52.696Z,11.75
2022-08-19T19:43:23.401Z,10.50
2022-08-19T19:45:52.701Z,13.07
2022-08-19T19:48:25.352Z,8.07
2022-08-19T19:50:56.417Z,10.10
2022-08-19T19:53:27.025Z,15.13
2022-08-19T19:56:00.110Z,14.68
2022-08-19T19:58:32.422Z,10.02
2022-08-19T20:01:09.396Z,12.30
2022-08-19T20:03:42.763Z,12.40
2022-08-19T20:09:01.720Z,8.63
2022-08-19T20:11:36.770Z,13.02
2022-08-19T20:14:08.761Z,12.07
2022-08-19T20:16:41.054Z,10.88
2022-08-19T20:19:15.407Z,11.23
2022-08-19T20:21:51.423Z,10.18
2022-08-19T20:24:24.770Z,10.23
2022-08-19T20:26:55.761Z,15.57
2022-08-19T20:29:38.322Z,9.15
2022-08-19T20:32:11.483Z,10.88
2022-08-19T20:34:45.364Z,12.27
2022-08-19T20:37:16.542Z,10.35
2022-08-19T20:39:46.888Z,10.25
2022-08-19T20:42:17.619Z,12.30
2022-08-19T20:44:48.673Z,15.27
2022-08-19T20:47:22.360Z,12.20
2022-08-19T20:49:54.698Z,11.43
2022-08-19T20:52:24.854Z,13.55
2022-08-19T20:54:54.796Z,12.85
2022-08-19T20:57:25.279Z,11.15
2022-08-19T20:59:55.796Z,12.45
2022-08-19T21:02:25.829Z,9.38
2022-08-19T21:05:00.059Z,15.95
2022-08-19T21:07:39.267Z,13.13
2022-08-19T21:10:12.079Z,13.23
2022-08-19T21:12:44.099Z,12.10
2022-08-19T21:15:13.655Z,14.88
2022-08-19T21:17:43.291Z,11.90
2022-08-19T21:20:15.578Z,16.90
2022-08-19T21:22:47.930Z,19.23
2022-08-19T21:25:20.068Z,11.27
2022-08-19T21:27:51.468Z,14.63
2022-08-19T21:30:23.597Z,13.10
2022-08-19T21:32:54.859Z,12.40
2022-08-19T21:35:27.209Z,18.70
2022-08-19T21:37:58.028Z,13.95
2022-08-19T21:40:30.536Z,11.77
2022-08-19T21:43:02.953Z,12.65
2022-08-19T21:45:33.697Z,13.07
2022-08-19T21:48:03.742Z,13.60
2022-08-19T21:50:37.311Z,12.50
2022-08-19T21:53:08.408Z,12.48
2022-08-19T21:55:42.939Z,12.50
2022-08-19T21:58:15.202Z,10.20
2022-08-19T22:00:43.827Z,15.25
2022-08-19T22:03:15.421Z,11.27
2022-08-19T22:05:48.159Z,13.85
2022-08-19T22:08:18.619Z,14.50
2022-08-19T22:10:46.842Z,14.05
2022-08-19T22:13:17.434Z,11.75
2022-08-19T22:15:45.720Z,11.10
2022-08-19T22:18:15.017Z,15.38
2022-08-19T22:20:42.989Z,11.75
2022-08-19T22:23:12.333Z,11.00
2022-08-19T22:25:44.047Z,11.73
2022-08-19T22:28:18.845Z,9.90
2022-08-19T22:30:51.100Z,12.77
2022-08-19T22:33:21.229Z,10.75
2022-08-19T22:35:49.861Z,12.75
2022-08-19T22:38:19.370Z,10.80
2022-08-19T22:40:49.464Z,7.95
2022-08-19T22:43:20.300Z,9.98
2022-08-19T22:45:50.535Z,13.05
2022-08-19T22:48:21.240Z,9.65
2022-08-19T22:51:04.004Z,9.73
2022-08-19T22:53:34.355Z,9.77
2022-08-19T22:56:02.998Z,11.40
2022-08-19T22:58:31.014Z,8.70
2022-08-19T23:00:59.131Z,9.93
2022-08-19T23:03:27.649Z,11.05
2022-08-19T23:05:56.482Z,11.48
2022-08-19T23:08:25.220Z,7.65
2022-08-19T23:10:54.481Z,8.73
2022-08-19T23:13:22.584Z,11.05
2022-08-19T23:15:51.033Z,9.82
2022-08-19T23:18:20.199Z,15.75
2022-08-19T23:20:48.501Z,13.30
2022-08-19T23:23:19.821Z,12.10
2022-08-19T23:25:50.053Z,11.70
2022-08-19T23:28:37.956Z,10.45
2022-08-19T23:31:07.018Z,7.82
2022-08-19T23:33:50.821Z,12.45
2022-08-19T23:36:23.368Z,12.75
2022-08-19T23:38:54.623Z,17.73
2022-08-19T23:41:27.806Z,9.45
2022-08-19T23:44:01.775Z,11.63
2022-08-19T23:46:32.229Z,8.95
2022-08-19T23:49:16.106Z,12.40
2022-08-19T23:51:45.476Z,10.60
2022-08-19T23:54:14.101Z,18.35
2022-08-19T23:56:42.196Z,12.93
2022-08-19T23:59:13.831Z,11.15
